sensor_id;sensor_type;location;lat;lon;timestamp;pressure;altitude;pressure_sealevel;temperature;humidity
12182;BME280;6154;51.550;12.138;2022-10-12T00:01:10;101538.78;;;10.58;53.38
12182;BME280;6154;51.550;12.138;2022-10-12T00:03:39;101537.00;;;10.58;53.13
12182;BME280;6154;51.550;12.138;2022-10-12T00:06:10;101541.44;;;10.58;53.29
12182;BME280;6154;51.550;12.138;2022-10-12T00:08:41;101544.19;;;10.55;53.16
12182;BME280;6154;51.550;12.138;2022-10-12T00:11:11;101547.66;;;10.57;53.20
12182;BME280;6154;51.550;12.138;2022-10-12T00:13:40;101544.19;;;10.55;53.98
12182;BME280;6154;51.550;12.138;2022-10-12T00:16:10;101543.44;;;10.51;54.41
12182;BME280;6154;51.550;12.138;2022-10-12T00:18:39;101545.28;;;10.49;53.89
12182;BME280;6154;51.550;12.138;2022-10-12T00:21:10;101540.03;;;10.48;53.60
12182;BME280;6154;51.550;12.138;2022-10-12T00:23:40;101542.69;;;10.48;52.95
12182;BME280;6154;51.550;12.138;2022-10-12T00:26:11;101545.28;;;10.49;52.92
12182;BME280;6154;51.550;12.138;2022-10-12T00:28:40;101539.97;;;10.49;53.16
12182;BME280;6154;51.550;12.138;2022-10-12T00:31:11;101542.81;;;10.45;54.15
12182;BME280;6154;51.550;12.138;2022-10-12T00:33:40;101543.78;;;10.42;54.30
12182;BME280;6154;51.550;12.138;2022-10-12T00:36:15;101534.97;;;10.42;53.46
12182;BME280;6154;51.550;12.138;2022-10-12T00:38:45;101533.22;;;10.42;53.47
12182;BME280;6154;51.550;12.138;2022-10-12T00:41:15;101535.88;;;10.41;53.24
12182;BME280;6154;51.550;12.138;2022-10-12T00:43:45;101540.38;;;10.39;53.04
12182;BME280;6154;51.550;12.138;2022-10-12T00:46:17;101542.22;;;10.36;53.08
12182;BME280;6154;51.550;12.138;2022-10-12T00:48:50;101540.50;;;10.35;53.26
12182;BME280;6154;51.550;12.138;2022-10-12T00:51:23;101539.72;;;10.32;53.10
12182;BME280;6154;51.550;12.138;2022-10-12T00:53:55;101539.03;;;10.27;53.21
12182;BME280;6154;51.550;12.138;2022-10-12T00:56:27;101546.16;;;10.25;53.60
12182;BME280;6154;51.550;12.138;2022-10-12T00:58:59;101541.13;;;10.17;54.13
12182;BME280;6154;51.550;12.138;2022-10-12T01:01:30;101540.44;;;10.12;54.41
12182;BME280;6154;51.550;12.138;2022-10-12T01:04:01;101541.38;;;10.09;54.41
12182;BME280;6154;51.550;12.138;2022-10-12T01:06:32;101539.59;;;10.10;53.59
12182;BME280;6154;51.550;12.138;2022-10-12T01:09:01;101543.97;;;10.11;53.46
12182;BME280;6154;51.550;12.138;2022-10-12T01:11:30;101543.09;;;10.11;53.47
12182;BME280;6154;51.550;12.138;2022-10-12T01:13:58;101543.28;;;10.06;53.49
12182;BME280;6154;51.550;12.138;2022-10-12T01:16:32;101543.38;;;10.03;53.11
12182;BME280;6154;51.550;12.138;2022-10-12T01:19:18;101546.03;;;10.03;52.95
12182;BME280;6154;51.550;12.138;2022-10-12T01:21:59;101544.12;;;10.06;52.99
12182;BME280;6154;51.550;12.138;2022-10-12T01:24:40;101539.81;;;10.04;53.13
12182;BME280;6154;51.550;12.138;2022-10-12T01:27:32;101545.16;;;10.02;53.38
12182;BME280;6154;51.550;12.138;2022-10-12T01:30:16;101546.13;;;10.00;55.47
12182;BME280;6154;51.550;12.138;2022-10-12T01:32:57;101554.16;;;9.97;54.58
12182;BME280;6154;51.550;12.138;2022-10-12T01:35:34;101550.72;;;9.95;55.67
12182;BME280;6154;51.550;12.138;2022-10-12T01:38:13;101558.66;;;9.95;55.63
12182;BME280;6154;51.550;12.138;2022-10-12T01:40:49;101556.00;;;9.95;55.22
12182;BME280;6154;51.550;12.138;2022-10-12T01:43:22;101555.09;;;9.96;54.52
12182;BME280;6154;51.550;12.138;2022-10-12T01:45:52;101547.22;;;9.94;53.95
12182;BME280;6154;51.550;12.138;2022-10-12T01:48:20;101556.00;;;9.95;53.77
12182;BME280;6154;51.550;12.138;2022-10-12T01:50:51;101548.06;;;9.95;53.48
12182;BME280;6154;51.550;12.138;2022-10-12T01:53:26;101558.66;;;9.95;53.26
12182;BME280;6154;51.550;12.138;2022-10-12T01:56:03;101550.78;;;9.93;53.34
12182;BME280;6154;51.550;12.138;2022-10-12T01:58:52;101562.22;;;9.94;53.30
12182;BME280;6154;51.550;12.138;2022-10-12T02:01:29;101549.84;;;9.94;53.68
12182;BME280;6154;51.550;12.138;2022-10-12T02:04:02;101542.88;;;9.92;53.67
12182;BME280;6154;51.550;12.138;2022-10-12T02:06:41;101542.00;;;9.91;53.56
12182;BME280;6154;51.550;12.138;2022-10-12T02:09:14;101545.47;;;9.93;54.46
12182;BME280;6154;51.550;12.138;2022-10-12T02:11:47;101543.69;;;9.94;54.81
12182;BME280;6154;51.550;12.138;2022-10-12T02:14:20;101541.06;;;9.94;53.86
12182;BME280;6154;51.550;12.138;2022-10-12T02:16:54;101538.41;;;9.94;53.38
12182;BME280;6154;51.550;12.138;2022-10-12T02:19:26;101535.84;;;9.91;54.17
12182;BME280;6154;51.550;12.138;2022-10-12T02:21:59;101526.19;;;9.90;53.77
12182;BME280;6154;51.550;12.138;2022-10-12T02:24:30;101523.59;;;9.88;53.38
12182;BME280;6154;51.550;12.138;2022-10-12T02:27:00;101530.78;;;9.85;53.90
12182;BME280;6154;51.550;12.138;2022-10-12T02:29:35;101531.78;;;9.80;53.70
12182;BME280;6154;51.550;12.138;2022-10-12T02:32:10;101526.62;;;9.77;53.12
12182;BME280;6154;51.550;12.138;2022-10-12T02:34:45;101520.41;;;9.78;53.26
12182;BME280;6154;51.550;12.138;2022-10-12T02:37:22;101525.94;;;9.72;53.89
12182;BME280;6154;51.550;12.138;2022-10-12T02:39:54;101517.16;;;9.70;54.11
12182;BME280;6154;51.550;12.138;2022-10-12T02:42:27;101508.44;;;9.68;53.73
12182;BME280;6154;51.550;12.138;2022-10-12T02:45:18;101509.53;;;9.63;54.62
12182;BME280;6154;51.550;12.138;2022-10-12T02:47:51;101509.72;;;9.57;55.06
12182;BME280;6154;51.550;12.138;2022-10-12T02:50:22;101514.25;;;9.53;54.57
12182;BME280;6154;51.550;12.138;2022-10-12T02:52:51;101512.41;;;9.55;54.56
12182;BME280;6154;51.550;12.138;2022-10-12T02:55:20;101506.25;;;9.55;55.49
12182;BME280;6154;51.550;12.138;2022-10-12T02:57:49;101509.97;;;9.49;55.65
12182;BME280;6154;51.550;12.138;2022-10-12T03:00:17;101502.25;;;9.43;55.40
12182;BME280;6154;51.550;12.138;2022-10-12T03:02:46;101500.59;;;9.39;55.25
12182;BME280;6154;51.550;12.138;2022-10-12T03:05:16;101501.63;;;9.35;55.51
12182;BME280;6154;51.550;12.138;2022-10-12T03:07:44;101505.19;;;9.34;54.94
12182;BME280;6154;51.550;12.138;2022-10-12T03:10:13;101510.47;;;9.34;54.72
12182;BME280;6154;51.550;12.138;2022-10-12T03:12:41;101511.47;;;9.30;55.03
12182;BME280;6154;51.550;12.138;2022-10-12T03:15:16;101499.34;;;9.24;55.19
12182;BME280;6154;51.550;12.138;2022-10-12T03:17:44;101508.19;;;9.23;54.75
12182;BME280;6154;51.550;12.138;2022-10-12T03:20:13;101503.03;;;9.18;54.74
12182;BME280;6154;51.550;12.138;2022-10-12T03:22:42;101498.84;;;9.11;55.28
12182;BME280;6154;51.550;12.138;2022-10-12T03:25:11;101501.59;;;9.08;54.83
12182;BME280;6154;51.550;12.138;2022-10-12T03:27:39;101506.00;;;9.08;54.52
12182;BME280;6154;51.550;12.138;2022-10-12T03:30:08;101505.19;;;9.06;54.49
12182;BME280;6154;51.550;12.138;2022-10-12T03:32:38;101504.41;;;9.04;54.89
12182;BME280;6154;51.550;12.138;2022-10-12T03:35:07;101505.31;;;9.01;54.78
12182;BME280;6154;51.550;12.138;2022-10-12T03:37:35;101495.72;;;8.99;54.70
12182;BME280;6154;51.550;12.138;2022-10-12T03:40:08;101498.44;;;8.97;54.82
12182;BME280;6154;51.550;12.138;2022-10-12T03:42:36;101494.97;;;8.95;54.68
12182;BME280;6154;51.550;12.138;2022-10-12T03:45:05;101498.59;;;8.91;55.10
12182;BME280;6154;51.550;12.138;2022-10-12T03:47:33;101502.25;;;8.87;55.41
12182;BME280;6154;51.550;12.138;2022-10-12T03:50:05;101504.19;;;8.82;55.81
12182;BME280;6154;51.550;12.138;2022-10-12T03:52:33;101494.56;;;8.79;56.04
12182;BME280;6154;51.550;12.138;2022-10-12T03:55:01;101497.25;;;8.78;56.07
12182;BME280;6154;51.550;12.138;2022-10-12T03:57:31;101500.81;;;8.77;56.07
12182;BME280;6154;51.550;12.138;2022-10-12T03:59:59;101500.97;;;8.71;56.71
12182;BME280;6154;51.550;12.138;2022-10-12T04:02:37;101503.69;;;8.69;56.54
12182;BME280;6154;51.550;12.138;2022-10-12T04:05:06;101501.09;;;8.68;56.15
12182;BME280;6154;51.550;12.138;2022-10-12T04:07:35;101499.38;;;8.67;56.07
12182;BME280;6154;51.550;12.138;2022-10-12T04:10:04;101503.00;;;8.62;56.06
12182;BME280;6154;51.550;12.138;2022-10-12T04:12:35;101499.47;;;8.63;56.01
12182;BME280;6154;51.550;12.138;2022-10-12T04:15:03;101502.84;;;8.67;56.44
12182;BME280;6154;51.550;12.138;2022-10-12T04:17:32;101504.53;;;8.70;56.63
12182;BME280;6154;51.550;12.138;2022-10-12T04:20:00;101494.78;;;8.73;56.83
12182;BME280;6154;51.550;12.138;2022-10-12T04:22:28;101489.44;;;8.75;56.13
12182;BME280;6154;51.550;12.138;2022-10-12T04:24:57;101502.59;;;8.76;55.26
12182;BME280;6154;51.550;12.138;2022-10-12T04:27:25;101507.00;;;8.76;55.12
12182;BME280;6154;51.550;12.138;2022-10-12T04:29:55;101500.91;;;8.74;54.82
12182;BME280;6154;51.550;12.138;2022-10-12T04:32:23;101498.34;;;8.71;55.09
12182;BME280;6154;51.550;12.138;2022-10-12T04:34:51;101495.81;;;8.68;55.21
12182;BME280;6154;51.550;12.138;2022-10-12T04:37:19;101490.63;;;8.64;55.40
12182;BME280;6154;51.550;12.138;2022-10-12T04:39:47;101496.88;;;8.62;55.38
12182;BME280;6154;51.550;12.138;2022-10-12T04:42:16;101489.94;;;8.58;55.50
12182;BME280;6154;51.550;12.138;2022-10-12T04:44:47;101490.00;;;8.56;55.43
12182;BME280;6154;51.550;12.138;2022-10-12T04:47:17;101491.72;;;8.57;54.95
12182;BME280;6154;51.550;12.138;2022-10-12T04:49:45;101492.62;;;8.56;54.95
12182;BME280;6154;51.550;12.138;2022-10-12T04:52:14;101491.75;;;8.56;54.95
12182;BME280;6154;51.550;12.138;2022-10-12T04:54:43;101502.41;;;8.53;55.03
12182;BME280;6154;51.550;12.138;2022-10-12T04:57:11;101502.47;;;8.50;55.12
12182;BME280;6154;51.550;12.138;2022-10-12T04:59:39;101509.59;;;8.48;55.25
12182;BME280;6154;51.550;12.138;2022-10-12T05:02:07;101502.69;;;8.44;55.13
12182;BME280;6154;51.550;12.138;2022-10-12T05:04:37;101506.22;;;8.43;56.04
12182;BME280;6154;51.550;12.138;2022-10-12T05:07:05;101504.47;;;8.42;55.70
12182;BME280;6154;51.550;12.138;2022-10-12T05:09:34;101504.47;;;8.43;55.14
12182;BME280;6154;51.550;12.138;2022-10-12T05:12:02;101504.47;;;8.42;55.31
12182;BME280;6154;51.550;12.138;2022-10-12T05:14:30;101500.09;;;8.42;54.92
12182;BME280;6154;51.550;12.138;2022-10-12T05:17:02;101501.81;;;8.43;54.71
12182;BME280;6154;51.550;12.138;2022-10-12T05:19:30;101501.78;;;8.45;54.58
12182;BME280;6154;51.550;12.138;2022-10-12T05:22:00;101506.12;;;8.46;54.94
12182;BME280;6154;51.550;12.138;2022-10-12T05:24:28;101507.00;;;8.46;54.71
12182;BME280;6154;51.550;12.138;2022-10-12T05:26:56;101507.00;;;8.46;54.48
12182;BME280;6154;51.550;12.138;2022-10-12T05:29:25;101500.84;;;8.46;54.37
12182;BME280;6154;51.550;12.138;2022-10-12T05:31:53;101503.44;;;8.47;54.43
12182;BME280;6154;51.550;12.138;2022-10-12T05:34:21;101500.81;;;8.47;54.96
12182;BME280;6154;51.550;12.138;2022-10-12T05:36:49;101504.31;;;8.48;54.97
12182;BME280;6154;51.550;12.138;2022-10-12T05:39:19;101508.72;;;8.47;54.63
12182;BME280;6154;51.550;12.138;2022-10-12T05:41:47;101508.00;;;8.42;55.77
12182;BME280;6154;51.550;12.138;2022-10-12T05:44:17;101519.38;;;8.44;55.93
12182;BME280;6154;51.550;12.138;2022-10-12T05:46:45;101514.00;;;8.47;55.61
12182;BME280;6154;51.550;12.138;2022-10-12T05:49:14;101512.97;;;8.51;55.44
12182;BME280;6154;51.550;12.138;2022-10-12T05:51:42;101513.72;;;8.56;55.12
12182;BME280;6154;51.550;12.138;2022-10-12T05:54:10;101515.34;;;8.60;55.35
12182;BME280;6154;51.550;12.138;2022-10-12T05:56:40;101507.31;;;8.65;55.82
12182;BME280;6154;51.550;12.138;2022-10-12T05:59:09;101509.91;;;8.67;56.92
12182;BME280;6154;51.550;12.138;2022-10-12T06:01:37;101515.09;;;8.70;57.16
12182;BME280;6154;51.550;12.138;2022-10-12T06:04:06;101508.88;;;8.72;56.48
12182;BME280;6154;51.550;12.138;2022-10-12T06:06:34;101504.19;;;8.82;56.23
12182;BME280;6154;51.550;12.138;2022-10-12T06:09:02;101518.97;;;8.87;56.94
12182;BME280;6154;51.550;12.138;2022-10-12T06:11:31;101519.72;;;8.91;57.31
12182;BME280;6154;51.550;12.138;2022-10-12T06:14:04;101517.72;;;8.99;56.68
12182;BME280;6154;51.550;12.138;2022-10-12T06:16:32;101510.53;;;9.04;57.05
12182;BME280;6154;51.550;12.138;2022-10-12T06:19:00;101510.38;;;9.09;56.77
12182;BME280;6154;51.550;12.138;2022-10-12T06:21:30;101517.19;;;9.16;56.57
12182;BME280;6154;51.550;12.138;2022-10-12T06:24:00;101518.75;;;9.21;56.97
12182;BME280;6154;51.550;12.138;2022-10-12T06:26:29;101520.38;;;9.27;56.55
12182;BME280;6154;51.550;12.138;2022-10-12T06:28:57;101520.12;;;9.35;56.82
12182;BME280;6154;51.550;12.138;2022-10-12T06:31:28;101518.09;;;9.43;56.57
12182;BME280;6154;51.550;12.138;2022-10-12T06:33:58;101516.03;;;9.51;56.93
12182;BME280;6154;51.550;12.138;2022-10-12T06:36:26;101514.06;;;9.58;57.13
12182;BME280;6154;51.550;12.138;2022-10-12T06:38:54;101511.25;;;9.64;57.28
12182;BME280;6154;51.550;12.138;2022-10-12T06:41:23;101519.72;;;9.73;57.31
12182;BME280;6154;51.550;12.138;2022-10-12T06:43:51;101517.47;;;9.88;56.93
12182;BME280;6154;51.550;12.138;2022-10-12T06:46:19;101514.38;;;10.00;57.05
12182;BME280;6154;51.550;12.138;2022-10-12T06:48:49;101524.56;;;10.12;57.51
12182;BME280;6154;51.550;12.138;2022-10-12T06:51:17;101524.16;;;10.24;57.53
12182;BME280;6154;51.550;12.138;2022-10-12T06:53:46;101525.41;;;10.38;57.53
12182;BME280;6154;51.550;12.138;2022-10-12T06:56:15;101524.87;;;10.53;57.58
12182;BME280;6154;51.550;12.138;2022-10-12T06:58:43;101521.91;;;10.60;57.37
12182;BME280;6154;51.550;12.138;2022-10-12T07:01:12;101526.78;;;10.73;57.31
12182;BME280;6154;51.550;12.138;2022-10-12T07:03:40;101525.31;;;10.87;57.27
12182;BME280;6154;51.550;12.138;2022-10-12T07:06:11;101522.97;;;11.02;57.65
12182;BME280;6154;51.550;12.138;2022-10-12T07:08:40;101517.87;;;11.19;57.17
12182;BME280;6154;51.550;12.138;2022-10-12T07:11:12;101526.81;;;11.38;56.78
12182;BME280;6154;51.550;12.138;2022-10-12T07:13:45;101514.97;;;11.47;57.89
12182;BME280;6154;51.550;12.138;2022-10-12T07:16:14;101516.31;;;11.57;57.41
12182;BME280;6154;51.550;12.138;2022-10-12T07:18:44;101531.53;;;11.74;57.24
12182;BME280;6154;51.550;12.138;2022-10-12T07:21:14;101527.25;;;11.92;57.21
12182;BME280;6154;51.550;12.138;2022-10-12T07:23:42;101526.75;;;12.04;57.41
12182;BME280;6154;51.550;12.138;2022-10-12T07:26:13;101532.22;;;12.20;57.08
12182;BME280;6154;51.550;12.138;2022-10-12T07:28:50;101531.69;;;12.32;57.24
12182;BME280;6154;51.550;12.138;2022-10-12T07:31:26;101532.66;;;12.50;57.04
12182;BME280;6154;51.550;12.138;2022-10-12T07:33:57;101532.75;;;12.67;57.37
12182;BME280;6154;51.550;12.138;2022-10-12T07:36:28;101532.94;;;12.83;57.02
12182;BME280;6154;51.550;12.138;2022-10-12T07:39:16;101532.28;;;12.97;56.77
12182;BME280;6154;51.550;12.138;2022-10-12T07:41:45;101534.19;;;13.12;56.72
12182;BME280;6154;51.550;12.138;2022-10-12T07:44:14;101536.16;;;13.27;56.70
12182;BME280;6154;51.550;12.138;2022-10-12T07:46:42;101537.06;;;13.45;56.89
12182;BME280;6154;51.550;12.138;2022-10-12T07:49:11;101528.22;;;13.62;56.69
12182;BME280;6154;51.550;12.138;2022-10-12T07:51:41;101535.28;;;13.80;56.67
12182;BME280;6154;51.550;12.138;2022-10-12T07:54:09;101525.69;;;13.95;56.81
12182;BME280;6154;51.550;12.138;2022-10-12T07:56:43;101527.03;;;14.03;56.55
12182;BME280;6154;51.550;12.138;2022-10-12T07:59:12;101531.78;;;14.14;56.67
12182;BME280;6154;51.550;12.138;2022-10-12T08:01:41;101528.31;;;14.29;56.43
12182;BME280;6154;51.550;12.138;2022-10-12T08:04:09;101525.78;;;14.44;56.31
12182;BME280;6154;51.550;12.138;2022-10-12T08:06:42;101523.09;;;14.61;56.40
12182;BME280;6154;51.550;12.138;2022-10-12T08:09:11;101518.88;;;14.73;56.03
12182;BME280;6154;51.550;12.138;2022-10-12T08:11:40;101520.47;;;14.92;55.96
12182;BME280;6154;51.550;12.138;2022-10-12T08:14:11;101513.25;;;15.10;55.62
12182;BME280;6154;51.550;12.138;2022-10-12T08:16:41;101520.28;;;15.27;55.70
12182;BME280;6154;51.550;12.138;2022-10-12T08:19:10;101521.16;;;15.43;55.31
12182;BME280;6154;51.550;12.138;2022-10-12T08:21:38;101523.88;;;15.58;55.09
12182;BME280;6154;51.550;12.138;2022-10-12T08:24:09;101524.03;;;15.70;55.07
12182;BME280;6154;51.550;12.138;2022-10-12T08:26:39;101526.06;;;15.81;54.91
12182;BME280;6154;51.550;12.138;2022-10-12T08:29:08;101525.44;;;15.92;54.86
12182;BME280;6154;51.550;12.138;2022-10-12T08:31:38;101527.38;;;16.04;54.84
12182;BME280;6154;51.550;12.138;2022-10-12T08:34:06;101518.78;;;16.13;54.66
12182;BME280;6154;51.550;12.138;2022-10-12T08:36:36;101522.34;;;16.28;54.71
12182;BME280;6154;51.550;12.138;2022-10-12T08:39:04;101519.41;;;16.47;54.81
12182;BME280;6154;51.550;12.138;2022-10-12T08:41:47;101511.78;;;16.69;54.59
12182;BME280;6154;51.550;12.138;2022-10-12T08:44:34;101508.44;;;16.94;54.18
12182;BME280;6154;51.550;12.138;2022-10-12T08:47:12;101501.47;;;17.18;53.73
12182;BME280;6154;51.550;12.138;2022-10-12T08:49:43;101510.03;;;17.38;53.26
12182;BME280;6154;51.550;12.138;2022-10-12T08:52:26;101508.06;;;17.54;53.13
12182;BME280;6154;51.550;12.138;2022-10-12T08:55:00;101502.25;;;17.74;52.89
12182;BME280;6154;51.550;12.138;2022-10-12T08:57:33;101509.13;;;17.91;52.82
12182;BME280;6154;51.550;12.138;2022-10-12T09:00:03;101505.28;;;18.08;52.65
12182;BME280;6154;51.550;12.138;2022-10-12T09:02:44;101504.22;;;18.23;52.50
12182;BME280;6154;51.550;12.138;2022-10-12T09:05:21;101495.09;;;18.38;52.10
12182;BME280;6154;51.550;12.138;2022-10-12T09:07:55;101485.22;;;18.52;52.20
12182;BME280;6154;51.550;12.138;2022-10-12T09:10:42;101489.72;;;18.64;52.14
12182;BME280;6154;51.550;12.138;2022-10-12T09:13:24;101487.66;;;18.80;51.96
12182;BME280;6154;51.550;12.138;2022-10-12T09:16:01;101489.12;;;18.97;51.40
12182;BME280;6154;51.550;12.138;2022-10-12T09:18:35;101486.41;;;19.10;51.81
12182;BME280;6154;51.550;12.138;2022-10-12T09:21:08;101482.91;;;19.20;51.64
12182;BME280;6154;51.550;12.138;2022-10-12T09:23:40;101486.31;;;19.35;51.60
12182;BME280;6154;51.550;12.138;2022-10-12T09:26:14;101483.31;;;19.51;51.46
12182;BME280;6154;51.550;12.138;2022-10-12T09:28:45;101477.87;;;19.64;50.78
12182;BME280;6154;51.550;12.138;2022-10-12T09:31:32;101477.09;;;19.74;51.08
12182;BME280;6154;51.550;12.138;2022-10-12T09:34:05;101475.78;;;19.91;49.86
12182;BME280;6154;51.550;12.138;2022-10-12T09:36:36;101468.72;;;20.01;50.82
12182;BME280;6154;51.550;12.138;2022-10-12T09:39:10;101467.75;;;20.14;50.68
12182;BME280;6154;51.550;12.138;2022-10-12T09:41:42;101470.47;;;20.25;50.24
12182;BME280;6154;51.550;12.138;2022-10-12T09:44:15;101464.97;;;20.37;50.44
12182;BME280;6154;51.550;12.138;2022-10-12T09:46:54;101460.84;;;20.45;49.37
12182;BME280;6154;51.550;12.138;2022-10-12T09:49:38;101461.91;;;20.53;49.94
12182;BME280;6154;51.550;12.138;2022-10-12T09:52:07;101452.88;;;20.65;49.34
12182;BME280;6154;51.550;12.138;2022-10-12T09:54:38;101451.16;;;20.76;49.83
12182;BME280;6154;51.550;12.138;2022-10-12T09:57:08;101455.56;;;20.77;48.62
12182;BME280;6154;51.550;12.138;2022-10-12T09:59:42;101444.53;;;20.80;49.56
12182;BME280;6154;51.550;12.138;2022-10-12T10:02:14;101456.25;;;20.90;48.94
12182;BME280;6154;51.550;12.138;2022-10-12T10:04:44;101452.56;;;21.02;49.41
12182;BME280;6154;51.550;12.138;2022-10-12T10:07:25;101456.91;;;21.14;49.29
12182;BME280;6154;51.550;12.138;2022-10-12T10:10:18;101460.59;;;21.24;47.67
12182;BME280;6154;51.550;12.138;2022-10-12T10:12:57;101462.06;;;21.29;46.51
12182;BME280;6154;51.550;12.138;2022-10-12T10:15:31;101467.44;;;21.29;48.73
12182;BME280;6154;51.550;12.138;2022-10-12T10:18:02;101457.59;;;21.39;48.35
12182;BME280;6154;51.550;12.138;2022-10-12T10:20:34;101460.87;;;21.42;48.56
12182;BME280;6154;51.550;12.138;2022-10-12T10:23:03;101452.16;;;21.50;48.17
12182;BME280;6154;51.550;12.138;2022-10-12T10:25:33;101455.22;;;21.57;48.28
12182;BME280;6154;51.550;12.138;2022-10-12T10:28:20;101450.41;;;21.60;48.20
12182;BME280;6154;51.550;12.138;2022-10-12T10:31:01;101449.03;;;21.66;45.32
12182;BME280;6154;51.550;12.138;2022-10-12T10:33:32;101452.44;;;21.68;45.75
12182;BME280;6154;51.550;12.138;2022-10-12T10:36:03;101457.00;;;21.67;47.47
12182;BME280;6154;51.550;12.138;2022-10-12T10:38:54;101454.28;;;21.67;47.12
12182;BME280;6154;51.550;12.138;2022-10-12T10:41:26;101446.06;;;21.69;44.33
12182;BME280;6154;51.550;12.138;2022-10-12T10:43:54;101439.97;;;21.67;46.80
12182;BME280;6154;51.550;12.138;2022-10-12T10:46:26;101438.72;;;21.71;47.32
12182;BME280;6154;51.550;12.138;2022-10-12T10:48:59;101433.91;;;21.74;47.03
12182;BME280;6154;51.550;12.138;2022-10-12T10:51:41;101438.19;;;21.77;46.81
12182;BME280;6154;51.550;12.138;2022-10-12T10:54:14;101429.97;;;21.78;45.78
12182;BME280;6154;51.550;12.138;2022-10-12T10:56:43;101438.72;;;21.71;46.21
12182;BME280;6154;51.550;12.138;2022-10-12T10:59:20;101431.47;;;21.71;46.62
12182;BME280;6154;51.550;12.138;2022-10-12T11:01:55;101415.31;;;21.71;45.89
12182;BME280;6154;51.550;12.138;2022-10-12T11:04:30;101420.41;;;21.74;46.26
12182;BME280;6154;51.550;12.138;2022-10-12T11:07:06;101422.16;;;21.75;46.27
12182;BME280;6154;51.550;12.138;2022-10-12T11:09:41;101423.25;;;21.73;45.65
12182;BME280;6154;51.550;12.138;2022-10-12T11:12:14;101417.88;;;21.73;46.30
12182;BME280;6154;51.550;12.138;2022-10-12T11:14:48;101418.84;;;21.72;46.08
12182;BME280;6154;51.550;12.138;2022-10-12T11:17:22;101415.03;;;21.74;46.14
12182;BME280;6154;51.550;12.138;2022-10-12T11:20:00;101410.25;;;21.78;45.56
12182;BME280;6154;51.550;12.138;2022-10-12T11:22:33;101407.41;;;21.79;45.44
12182;BME280;6154;51.550;12.138;2022-10-12T11:25:13;101410.81;;;21.81;45.77
12182;BME280;6154;51.550;12.138;2022-10-12T11:27:45;101409.47;;;21.87;45.23
12182;BME280;6154;51.550;12.138;2022-10-12T11:30:21;101395.69;;;21.90;45.98
12182;BME280;6154;51.550;12.138;2022-10-12T11:32:54;101400.72;;;21.95;45.73
12182;BME280;6154;51.550;12.138;2022-10-12T11:35:29;101400.44;;;21.98;45.15
12182;BME280;6154;51.550;12.138;2022-10-12T11:38:00;101389.09;;;22.04;45.54
12182;BME280;6154;51.550;12.138;2022-10-12T11:40:32;101390.56;;;22.08;45.31
12182;BME280;6154;51.550;12.138;2022-10-12T11:43:28;101384.62;;;22.14;45.27
12182;BME280;6154;51.550;12.138;2022-10-12T11:46:00;101382.37;;;22.19;44.85
12182;BME280;6154;51.550;12.138;2022-10-12T11:48:35;101390.66;;;22.27;45.05
12182;BME280;6154;51.550;12.138;2022-10-12T11:51:05;101383.13;;;22.31;43.81
12182;BME280;6154;51.550;12.138;2022-10-12T11:53:40;101383.47;;;22.37;45.25
12182;BME280;6154;51.550;12.138;2022-10-12T11:56:15;101374.78;;;22.44;44.40
12182;BME280;6154;51.550;12.138;2022-10-12T11:58:49;101383.06;;;22.52;44.13
12182;BME280;6154;51.550;12.138;2022-10-12T12:01:41;101372.00;;;22.55;44.85
12182;BME280;6154;51.550;12.138;2022-10-12T12:04:21;101367.34;;;22.66;43.23
12182;BME280;6154;51.550;12.138;2022-10-12T12:07:43;101365.06;;;22.72;42.96
12182;BME280;6154;51.550;12.138;2022-10-12T12:13:29;101352.59;;;22.90;41.88
12182;BME280;6154;51.550;12.138;2022-10-12T12:16:30;101355.47;;;22.98;44.75
12182;BME280;6154;51.550;12.138;2022-10-12T12:19:37;101349.06;;;23.09;42.06
12182;BME280;6154;51.550;12.138;2022-10-12T12:22:32;101342.50;;;23.21;41.61
12182;BME280;6154;51.550;12.138;2022-10-12T12:25:17;101343.06;;;23.24;40.68
12182;BME280;6154;51.550;12.138;2022-10-12T12:27:48;101333.38;;;23.32;44.38
12182;BME280;6154;51.550;12.138;2022-10-12T12:30:30;101330.97;;;23.38;44.09
12182;BME280;6154;51.550;12.138;2022-10-12T12:33:02;101330.66;;;23.51;42.31
12182;BME280;6154;51.550;12.138;2022-10-12T12:35:37;101323.56;;;23.60;43.97
12182;BME280;6154;51.550;12.138;2022-10-12T12:38:16;101325.09;;;23.62;42.96
12182;BME280;6154;51.550;12.138;2022-10-12T12:40:57;101324.06;;;23.73;42.21
12182;BME280;6154;51.550;12.138;2022-10-12T12:49:55;101313.81;;;23.86;40.39
12182;BME280;6154;51.550;12.138;2022-10-12T12:52:29;101308.47;;;23.94;43.66
12182;BME280;6154;51.550;12.138;2022-10-12T12:55:25;101300.19;;;24.05;43.29
12182;BME280;6154;51.550;12.138;2022-10-12T13:01:12;101297.44;;;24.15;40.97
12182;BME280;6154;51.550;12.138;2022-10-12T13:03:58;101287.00;;;24.20;42.16
12182;BME280;6154;51.550;12.138;2022-10-12T13:10:03;101286.94;;;24.30;40.17
12182;BME280;6154;51.550;12.138;2022-10-12T13:12:59;101288.66;;;24.31;41.95
12182;BME280;6154;51.550;12.138;2022-10-12T13:15:38;101284.94;;;24.32;40.09
12182;BME280;6154;51.550;12.138;2022-10-12T13:18:30;101282.66;;;24.37;41.54
12182;BME280;6154;51.550;12.138;2022-10-12T13:21:21;101278.97;;;24.28;40.65
12182;BME280;6154;51.550;12.138;2022-10-12T13:23:55;101270.91;;;24.19;43.03
12182;BME280;6154;51.550;12.138;2022-10-12T13:26:29;101265.09;;;24.14;42.25
12182;BME280;6154;51.550;12.138;2022-10-12T13:29:01;101271.66;;;24.11;42.56
12182;BME280;6154;51.550;12.138;2022-10-12T13:31:37;101270.28;;;24.07;42.37
12182;BME280;6154;51.550;12.138;2022-10-12T13:34:11;101271.41;;;24.04;42.27
12182;BME280;6154;51.550;12.138;2022-10-12T13:36:49;101268.31;;;23.99;42.34
12182;BME280;6154;51.550;12.138;2022-10-12T13:39:21;101263.81;;;23.90;41.56
12182;BME280;6154;51.550;12.138;2022-10-12T13:42:26;101257.00;;;23.86;42.76